createdAt,value
2019-02-15T00:00:02.895Z,102987.56
2019-02-15T00:02:31.435Z,102990.49
2019-02-15T00:04:59.793Z,102984.34
2019-02-15T00:07:28.277Z,102984.34
2019-02-15T00:09:56.776Z,102991.91
2019-02-15T00:12:25.177Z,102988.12
2019-02-15T00:14:53.560Z,102987.75
2019-02-15T00:17:23.653Z,102981.84
2019-02-15T00:19:53.673Z,102982.44
2019-02-15T00:22:22.057Z,102982.44
2019-02-15T00:24:52.139Z,102987.14
2019-02-15T00:27:20.691Z,102985.72
2019-02-15T00:29:49.117Z,102988.66
2019-02-15T00:32:17.590Z,102991.48
2019-02-15T00:34:46.045Z,102989.22
2019-02-15T00:37:14.403Z,102979.18
2019-02-15T00:39:42.882Z,102983.73
2019-02-15T00:42:11.299Z,102988.98
2019-02-15T00:44:39.698Z,102993.89
2019-02-15T00:47:15.266Z,102989.92
2019-02-15T00:49:45.599Z,102987.20
2019-02-15T00:52:15.685Z,102994.61
2019-02-15T00:54:45.772Z,102989.59
2019-02-15T00:57:18.750Z,102983.38
2019-02-15T00:59:51.207Z,102985.42
2019-02-15T01:02:27.075Z,102986.66
2019-02-15T01:05:00.254Z,102987.83
2019-02-15T01:07:46.471Z,102988.91
2019-02-15T01:10:19.483Z,102988.64
2019-02-15T01:12:49.600Z,102982.61
2019-02-15T01:15:18.050Z,102977.70
2019-02-15T01:17:46.483Z,102967.89
2019-02-15T01:20:14.942Z,102976.22
2019-02-15T01:22:43.523Z,102974.31
2019-02-15T01:25:12.046Z,102974.43
2019-02-15T01:27:47.579Z,102968.64
2019-02-15T01:30:33.677Z,102973.16
2019-02-15T01:33:03.745Z,102972.22
2019-02-15T01:35:33.902Z,102972.77
2019-02-15T01:38:21.782Z,102969.27
2019-02-15T01:40:57.742Z,102968.41
2019-02-15T01:43:39.805Z,102967.28
2019-02-15T01:46:08.713Z,102965.58
2019-02-15T01:48:37.193Z,102956.70
2019-02-15T01:51:05.706Z,102952.34
2019-02-15T01:53:34.166Z,102951.73
2019-02-15T01:56:02.643Z,102946.80
2019-02-15T01:58:31.080Z,102943.95
2019-02-15T02:00:59.626Z,102948.67
2019-02-15T02:03:28.158Z,102946.59
2019-02-15T02:05:56.892Z,102946.21
2019-02-15T02:08:28.373Z,102952.71
2019-02-15T02:10:56.971Z,102945.79
2019-02-15T02:13:25.360Z,102940.89
2019-02-15T02:15:53.846Z,102941.27
2019-02-15T02:18:22.275Z,102941.94
2019-02-15T02:20:50.756Z,102944.50
2019-02-15T02:23:19.231Z,102940.23
2019-02-15T02:25:47.688Z,102941.94
2019-02-15T02:28:16.229Z,102931.63
2019-02-15T02:30:44.649Z,102929.76
2019-02-15T02:33:13.119Z,102928.44
2019-02-15T02:35:41.565Z,102931.08
2019-02-15T02:38:10.012Z,102925.72
2019-02-15T02:40:38.526Z,102926.11
2019-02-15T02:43:07.263Z,102920.44
2019-02-15T02:45:35.694Z,102928.37
2019-02-15T02:48:04.243Z,102925.72
2019-02-15T02:50:32.651Z,102921.09
2019-02-15T02:53:01.056Z,102923.16
2019-02-15T02:55:29.583Z,102917.55
2019-02-15T02:57:57.976Z,102914.06
2019-02-15T03:00:33.175Z,102919.34
2019-02-15T03:02:56.590Z,102926.42
2019-02-15T03:05:24.949Z,102923.47
2019-02-15T03:07:53.699Z,102920.63
2019-02-15T03:10:22.154Z,102922.27
2019-02-15T03:12:50.562Z,102913.17
2019-02-15T03:15:19.030Z,102915.03
2019-02-15T03:17:47.400Z,102912.97
2019-02-15T03:20:16.064Z,102916.47
2019-02-15T03:22:44.749Z,102921.36
2019-02-15T03:25:13.311Z,102912.66
2019-02-15T03:27:41.763Z,102923.27
2019-02-15T03:30:10.391Z,102920.16
2019-02-15T03:32:38.867Z,102925.80
2019-02-15T03:35:09.255Z,102928.53
2019-02-15T03:37:55.251Z,102929.23
2019-02-15T03:40:25.271Z,102933.00
2019-02-15T03:42:53.725Z,102928.34
2019-02-15T03:45:22.203Z,102933.16
2019-02-15T03:47:50.615Z,102937.80
2019-02-15T03:50:19.431Z,102931.73
2019-02-15T03:52:48.211Z,102935.23
2019-02-15T03:55:16.645Z,102930.88
2019-02-15T03:57:45.375Z,102932.13
2019-02-15T04:00:13.968Z,102935.34
2019-02-15T04:02:42.415Z,102931.92
2019-02-15T04:05:10.967Z,102926.64
2019-02-15T04:07:39.508Z,102925.47
2019-02-15T04:10:09.537Z,102926.40
2019-02-15T04:12:37.976Z,102925.08
2019-02-15T04:15:07.502Z,102926.52
2019-02-15T04:17:36.158Z,102930.16
2019-02-15T04:20:07.003Z,102935.59
2019-02-15T04:22:35.455Z,102925.95
2019-02-15T04:25:04.448Z,102928.98
2019-02-15T04:27:32.904Z,102937.30
2019-02-15T04:30:01.331Z,102938.81
2019-02-15T04:32:29.698Z,102940.49
2019-02-15T04:34:58.163Z,102940.49
2019-02-15T04:37:26.545Z,102942.67
2019-02-15T04:39:54.931Z,102935.98
2019-02-15T04:42:23.392Z,102928.13
2019-02-15T04:44:51.885Z,102927.78
2019-02-15T04:47:20.333Z,102930.58
2019-02-15T04:49:48.781Z,102938.83
2019-02-15T04:52:17.186Z,102933.23
2019-02-15T04:54:45.659Z,102941.55
2019-02-15T04:57:14.128Z,102931.52
2019-02-15T04:59:42.634Z,102929.34
2019-02-15T05:02:11.110Z,102933.62
2019-02-15T05:04:39.578Z,102932.77
2019-02-15T05:07:08.049Z,102934.16
2019-02-15T05:09:36.506Z,102938.13
2019-02-15T05:12:05.101Z,102933.62
2019-02-15T05:14:33.461Z,102936.41
2019-02-15T05:17:01.866Z,102943.98
2019-02-15T05:19:30.227Z,102938.20
2019-02-15T05:21:58.909Z,102936.60
2019-02-15T05:24:27.294Z,102944.98
2019-02-15T05:26:55.747Z,102937.67
2019-02-15T05:29:24.445Z,102937.29
2019-02-15T05:31:52.900Z,102941.36
2019-02-15T05:34:21.632Z,102930.02
2019-02-15T05:36:50.083Z,102933.12
2019-02-15T05:39:18.589Z,102933.12
2019-02-15T05:41:47.297Z,102931.87
2019-02-15T05:44:16.383Z,102923.09
2019-02-15T05:46:44.874Z,102923.48
2019-02-15T05:49:13.285Z,102930.94
2019-02-15T05:51:41.941Z,102939.27
2019-02-15T05:54:10.393Z,102940.06
2019-02-15T05:56:38.844Z,102940.91
2019-02-15T05:59:07.229Z,102940.91
2019-02-15T06:01:35.943Z,102940.77
2019-02-15T06:04:04.772Z,102945.09
2019-02-15T06:06:33.403Z,102941.13
2019-02-15T06:09:01.857Z,102942.45
2019-02-15T06:11:30.274Z,102944.73
2019-02-15T06:13:58.689Z,102946.41
2019-02-15T06:16:27.161Z,102942.09
2019-02-15T06:18:55.569Z,102934.56
2019-02-15T06:21:24.050Z,102940.06
2019-02-15T06:23:52.458Z,102946.13
2019-02-15T06:26:20.884Z,102944.34
2019-02-15T06:28:49.338Z,102951.73
2019-02-15T06:31:17.839Z,102951.02
2019-02-15T06:33:46.275Z,102949.70
2019-02-15T06:36:14.655Z,102945.73
2019-02-15T06:38:43.092Z,102948.37
2019-02-15T06:41:12.399Z,102954.77
2019-02-15T06:43:42.870Z,102958.62
2019-02-15T06:46:11.275Z,102954.12
2019-02-15T06:48:39.735Z,102953.66
2019-02-15T06:51:08.258Z,102955.91
2019-02-15T06:53:36.705Z,102958.62
2019-02-15T06:56:05.803Z,102958.72
2019-02-15T06:58:35.595Z,102966.64
2019-02-15T07:01:05.687Z,102961.72
2019-02-15T07:03:43.695Z,102966.47
2019-02-15T07:06:11.803Z,102969.11
2019-02-15T07:08:40.196Z,102965.86
2019-02-15T07:11:08.560Z,102967.64
2019-02-15T07:13:37.087Z,102974.70
2019-02-15T07:16:05.483Z,102974.48
2019-02-15T07:18:34.195Z,102973.55
2019-02-15T07:21:02.578Z,102973.70
2019-02-15T07:23:31.325Z,102974.69
2019-02-15T07:25:59.853Z,102972.23
2019-02-15T07:28:28.611Z,102973.16
2019-02-15T07:30:57.040Z,102975.25
2019-02-15T07:33:25.519Z,102976.69
2019-02-15T07:35:53.984Z,102980.59
2019-02-15T07:38:22.714Z,102976.48
2019-02-15T07:40:51.168Z,102978.41
2019-02-15T07:43:19.934Z,102983.13
2019-02-15T07:45:48.340Z,102984.77
2019-02-15T07:48:16.780Z,102982.05
2019-02-15T07:50:45.219Z,102982.92
2019-02-15T07:53:13.672Z,102980.62
2019-02-15T07:55:42.407Z,102973.92
2019-02-15T07:58:11.281Z,102975.17
2019-02-15T08:00:39.688Z,102974.38
2019-02-15T08:03:08.147Z,102975.16
2019-02-15T08:05:36.614Z,102971.41
2019-02-15T08:08:05.169Z,102975.37
2019-02-15T08:10:33.557Z,102965.86
2019-02-15T08:13:01.986Z,102963.08
2019-02-15T08:15:36.214Z,102963.13
2019-02-15T08:18:00.793Z,102967.30
2019-02-15T08:20:29.544Z,102967.67
2019-02-15T08:22:57.997Z,102971.38
2019-02-15T08:25:26.477Z,102970.61
2019-02-15T08:27:54.940Z,102970.55
2019-02-15T08:30:23.710Z,102970.86
2019-02-15T08:32:52.518Z,102974.79
2019-02-15T08:35:21.000Z,102983.44
2019-02-15T08:37:49.458Z,102982.66
2019-02-15T08:40:18.111Z,102975.30
2019-02-15T08:42:46.648Z,102975.27
2019-02-15T08:45:15.391Z,102982.77
2019-02-15T08:47:43.809Z,102980.55
2019-02-15T08:50:12.616Z,102980.19
2019-02-15T08:52:41.073Z,102981.55
2019-02-15T08:55:11.480Z,102982.50
2019-02-15T08:57:40.008Z,102984.41
2019-02-15T09:00:12.812Z,102986.14
2019-02-15T09:02:41.557Z,102989.03
2019-02-15T09:05:11.868Z,102989.32
2019-02-15T09:07:40.407Z,102991.16
2019-02-15T09:10:10.706Z,102994.18
2019-02-15T09:12:39.072Z,102995.17
2019-02-15T09:15:13.568Z,102997.23
2019-02-15T09:17:42.073Z,102995.31
2019-02-15T09:20:11.897Z,102997.50
2019-02-15T09:22:40.361Z,103000.16
2019-02-15T09:25:10.809Z,103002.42
2019-02-15T09:27:43.649Z,102998.45
2019-02-15T09:30:14.249Z,102998.06
2019-02-15T09:32:42.764Z,102999.03
2019-02-15T09:35:12.422Z,102996.55
2019-02-15T09:37:40.927Z,102994.28
2019-02-15T09:40:12.090Z,102995.59
2019-02-15T09:42:40.618Z,102998.80
2019-02-15T09:45:11.943Z,102999.36
2019-02-15T09:47:40.413Z,102990.61
2019-02-15T09:50:12.027Z,102987.27
2019-02-15T09:52:40.392Z,102986.77
2019-02-15T09:55:09.217Z,102978.52
2019-02-15T09:57:37.662Z,102987.70
2019-02-15T10:00:08.683Z,102975.78
2019-02-15T10:02:37.136Z,102984.16
2019-02-15T10:05:06.963Z,102979.50
2019-02-15T10:07:35.488Z,102971.69
2019-02-15T10:10:05.338Z,102965.90
2019-02-15T10:12:34.088Z,102970.17
2019-02-15T10:15:02.439Z,102968.14
2019-02-15T10:17:30.840Z,102966.62
2019-02-15T10:19:59.225Z,102967.14
2019-02-15T10:22:27.941Z,102963.17
2019-02-15T10:24:56.331Z,102971.59
2019-02-15T10:27:25.060Z,102963.77
2019-02-15T10:29:53.589Z,102966.22
2019-02-15T10:32:22.095Z,102959.25
2019-02-15T10:34:50.593Z,102956.47
2019-02-15T10:37:18.913Z,102953.67
2019-02-15T10:39:47.320Z,102955.82
2019-02-15T10:42:15.774Z,102952.98
2019-02-15T10:44:44.307Z,102951.59
2019-02-15T10:47:14.484Z,102949.67
2019-02-15T10:49:43.100Z,102952.23
2019-02-15T10:52:11.479Z,102948.98
2019-02-15T10:54:40.191Z,102948.48
2019-02-15T10:57:08.626Z,102944.69
2019-02-15T10:59:37.138Z,102943.77
2019-02-15T11:02:05.731Z,102936.59
2019-02-15T11:04:34.408Z,102935.37
2019-02-15T11:07:02.886Z,102939.16
2019-02-15T11:09:31.651Z,102932.62
2019-02-15T11:12:00.124Z,102927.41
2019-02-15T11:14:28.500Z,102926.59
2019-02-15T11:16:56.953Z,102925.97
2019-02-15T11:19:25.465Z,102920.41
2019-02-15T11:21:53.921Z,102918.70
2019-02-15T11:24:22.679Z,102915.94
2019-02-15T11:26:51.157Z,102914.72
2019-02-15T11:29:19.530Z,102911.73
2019-02-15T11:31:48.072Z,102908.36
2019-02-15T11:34:16.514Z,102907.16
2019-02-15T11:36:44.994Z,102904.37
2019-02-15T11:39:13.467Z,102898.30
2019-02-15T11:41:42.088Z,102896.64
2019-02-15T11:44:10.558Z,102891.41
2019-02-15T11:46:38.961Z,102896.02
2019-02-15T11:49:07.402Z,102889.45
2019-02-15T11:51:35.846Z,102895.02
2019-02-15T11:54:04.439Z,102891.27
2019-02-15T11:56:33.194Z,102887.87
2019-02-15T11:59:01.600Z,102889.97
2019-02-15T12:01:30.194Z,102880.00
2019-02-15T12:03:58.701Z,102885.69
2019-02-15T12:06:27.092Z,102881.96
2019-02-15T12:08:55.453Z,102879.04
2019-02-15T12:11:23.861Z,102888.36
2019-02-15T12:13:52.578Z,102886.55
2019-02-15T12:16:21.106Z,102886.52
2019-02-15T12:18:49.562Z,102883.73
2019-02-15T12:21:18.042Z,102879.71
2019-02-15T12:23:46.489Z,102877.24
2019-02-15T12:26:15.070Z,102882.16
2019-02-15T12:28:43.509Z,102882.41
2019-02-15T12:31:12.036Z,102879.70
2019-02-15T12:33:40.496Z,102873.18
2019-02-15T12:36:09.037Z,102874.58
2019-02-15T12:38:37.511Z,102873.20
2019-02-15T12:41:06.002Z,102871.38
2019-02-15T12:43:34.432Z,102869.56
2019-02-15T12:46:03.233Z,102871.17
2019-02-15T12:48:31.641Z,102865.43
2019-02-15T12:51:00.096Z,102862.39
2019-02-15T12:53:28.503Z,102861.66
2019-02-15T12:55:56.929Z,102855.87
2019-02-15T12:58:25.493Z,102853.81
2019-02-15T13:00:53.967Z,102848.47
2019-02-15T13:03:22.362Z,102844.45
2019-02-15T13:05:50.827Z,102844.65
2019-02-15T13:08:19.210Z,102843.75
2019-02-15T13:10:47.580Z,102839.21
2019-02-15T13:13:16.089Z,102839.94
2019-02-15T13:15:44.528Z,102842.86
2019-02-15T13:18:12.970Z,102836.83
2019-02-15T13:20:41.443Z,102837.52
2019-02-15T13:23:10.085Z,102830.66
2019-02-15T13:25:38.818Z,102825.37
2019-02-15T13:28:07.269Z,102826.22
2019-02-15T13:30:35.900Z,102828.59
2019-02-15T13:33:04.424Z,102827.12
2019-02-15T13:35:32.891Z,102821.59
2019-02-15T13:38:01.275Z,102816.01
2019-02-15T13:40:30.080Z,102816.42
2019-02-15T13:42:58.595Z,102813.28
2019-02-15T13:45:29.372Z,102812.84
2019-02-15T13:47:57.263Z,102810.53
2019-02-15T13:50:25.663Z,102807.02
2019-02-15T13:52:54.113Z,102809.44
2019-02-15T13:55:22.661Z,102803.13
2019-02-15T13:57:51.121Z,102798.09
2019-02-15T14:00:19.570Z,102806.59
2019-02-15T14:02:48.217Z,102800.28
2019-02-15T14:05:16.741Z,102805.67
2019-02-15T14:07:45.282Z,102799.71
2019-02-15T14:10:14.840Z,102796.80
2019-02-15T14:12:43.244Z,102795.09
2019-02-15T14:15:12.171Z,102791.64
2019-02-15T14:17:44.736Z,102787.38
2019-02-15T14:20:12.244Z,102789.22
2019-02-15T14:22:40.892Z,102785.81
2019-02-15T14:25:11.393Z,102787.88
2019-02-15T14:27:40.175Z,102781.34
2019-02-15T14:30:14.853Z,102782.33
2019-02-15T14:32:45.145Z,102783.80
2019-02-15T14:35:14.563Z,102778.13
2019-02-15T14:37:43.074Z,102772.41
2019-02-15T14:40:12.695Z,102775.34
2019-02-15T14:42:41.435Z,102773.09
2019-02-15T14:45:11.409Z,102773.33
2019-02-15T14:47:40.053Z,102769.08
2019-02-15T14:50:09.871Z,102767.70
2019-02-15T14:52:38.962Z,102763.02
2019-02-15T14:55:09.273Z,102761.41
2019-02-15T14:57:37.765Z,102754.45
2019-02-15T15:00:15.929Z,102747.08
2019-02-15T15:02:44.768Z,102747.95
2019-02-15T15:05:16.054Z,102745.04
2019-02-15T15:07:44.508Z,102745.71
2019-02-15T15:10:13.163Z,102740.06
2019-02-15T15:12:41.672Z,102743.40
2019-02-15T15:15:15.536Z,102744.42
2019-02-15T15:17:43.997Z,102739.74
2019-02-15T15:20:13.343Z,102737.61
2019-02-15T15:22:41.848Z,102738.95
2019-02-15T15:25:14.399Z,102728.80
2019-02-15T15:27:42.929Z,102729.33
2019-02-15T15:30:14.301Z,102726.09
2019-02-15T15:32:42.957Z,102724.52
2019-02-15T15:35:12.212Z,102718.94
2019-02-15T15:37:40.790Z,102721.00
2019-02-15T15:40:11.731Z,102718.98
2019-02-15T15:42:40.194Z,102723.88
2019-02-15T15:45:10.914Z,102722.27
2019-02-15T15:47:39.586Z,102721.45
2019-02-15T15:50:10.199Z,102723.31
2019-02-15T15:52:38.781Z,102719.52
2019-02-15T15:55:09.910Z,102714.25
2019-02-15T15:57:38.277Z,102718.94
2019-02-15T16:00:14.742Z,102715.98
2019-02-15T16:02:43.851Z,102723.63
2019-02-15T16:05:12.526Z,102717.06
2019-02-15T16:07:43.252Z,102713.67
2019-02-15T16:10:12.663Z,102709.86
2019-02-15T16:12:41.102Z,102715.28
2019-02-15T16:15:11.572Z,102721.22
2019-02-15T16:17:40.086Z,102724.38
2019-02-15T16:20:10.723Z,102715.08
2019-02-15T16:22:39.300Z,102716.09
2019-02-15T16:25:08.902Z,102713.48
2019-02-15T16:27:37.357Z,102708.95
2019-02-15T16:30:12.230Z,102722.72
2019-02-15T16:32:40.788Z,102720.23
2019-02-15T16:35:09.721Z,102724.79
2019-02-15T16:37:38.193Z,102719.69
2019-02-15T16:40:14.851Z,102719.96
2019-02-15T16:42:43.482Z,102724.70
2019-02-15T16:45:16.254Z,102723.03
2019-02-15T16:47:44.816Z,102716.99
2019-02-15T16:50:13.734Z,102720.16
2019-02-15T16:52:42.200Z,102722.00
2019-02-15T16:55:13.202Z,102721.02
2019-02-15T16:57:41.169Z,102716.92
2019-02-15T17:00:11.787Z,102714.75
2019-02-15T17:02:40.388Z,102709.56
2019-02-15T17:05:09.160Z,102712.45
2019-02-15T17:07:37.775Z,102715.87
2019-02-15T17:10:10.873Z,102716.58
2019-02-15T17:12:39.441Z,102710.78
2019-02-15T17:15:11.045Z,102709.68
2019-02-15T17:17:39.614Z,102716.12
2019-02-15T17:20:09.446Z,102711.98
2019-02-15T17:22:37.929Z,102714.06
2019-02-15T17:25:12.794Z,102710.78
2019-02-15T17:27:41.383Z,102715.00
2019-02-15T17:30:12.910Z,102713.08
2019-02-15T17:32:41.351Z,102713.67
2019-02-15T17:35:17.049Z,102710.91
2019-02-15T17:37:45.576Z,102706.66
2019-02-15T17:40:17.412Z,102705.58
2019-02-15T17:42:45.941Z,102702.66
2019-02-15T17:45:14.510Z,102697.56
2019-02-15T17:47:43.027Z,102698.53
2019-02-15T17:50:12.259Z,102700.48
2019-02-15T17:52:40.740Z,102694.42
2019-02-15T17:55:10.161Z,102690.28
2019-02-15T17:57:39.037Z,102694.91
2019-02-15T18:00:12.642Z,102687.14
2019-02-15T18:02:41.540Z,102692.72
2019-02-15T18:05:12.271Z,102693.69
2019-02-15T18:07:40.759Z,102693.06
2019-02-15T18:10:09.211Z,102692.84
2019-02-15T18:12:37.767Z,102683.74
2019-02-15T18:15:06.764Z,102686.15
2019-02-15T18:17:35.401Z,102685.92
2019-02-15T18:20:04.793Z,102684.22
2019-02-15T18:22:33.188Z,102687.95
2019-02-15T18:25:01.736Z,102677.56
2019-02-15T18:27:30.123Z,102677.67
2019-02-15T18:29:58.529Z,102675.61
2019-02-15T18:32:27.328Z,102671.84
2019-02-15T18:34:55.998Z,102673.80
2019-02-15T18:37:24.591Z,102672.09
2019-02-15T18:39:53.177Z,102676.19
2019-02-15T18:42:21.634Z,102668.94
2019-02-15T18:44:50.173Z,102663.63
2019-02-15T18:47:18.561Z,102667.25
2019-02-15T18:49:47.441Z,102668.20
2019-02-15T18:52:15.973Z,102671.83
2019-02-15T18:54:44.340Z,102671.56
2019-02-15T18:57:12.811Z,102668.53
2019-02-15T18:59:41.189Z,102668.16
2019-02-15T19:02:09.777Z,102669.12
2019-02-15T19:04:38.278Z,102667.53
2019-02-15T19:07:06.694Z,102668.13
2019-02-15T19:09:35.159Z,102671.41
2019-02-15T19:12:03.764Z,102671.99
2019-02-15T19:14:32.281Z,102668.22
2019-02-15T19:17:00.648Z,102663.16
2019-02-15T19:19:29.522Z,102664.48
2019-02-15T19:21:58.055Z,102658.80
2019-02-15T19:24:26.503Z,102653.13
2019-02-15T19:26:54.865Z,102653.10
2019-02-15T19:29:23.279Z,102650.70
2019-02-15T19:31:51.639Z,102644.05
2019-02-15T19:34:20.113Z,102645.49
2019-02-15T19:36:48.827Z,102642.46
2019-02-15T19:39:17.310Z,102639.47
2019-02-15T19:41:45.674Z,102634.99
2019-02-15T19:44:14.143Z,102635.22
2019-02-15T19:46:42.826Z,102635.58
2019-02-15T19:49:11.191Z,102632.08
2019-02-15T19:51:39.686Z,102634.25
2019-02-15T19:54:08.158Z,102631.59
2019-02-15T19:56:36.591Z,102631.48
2019-02-15T19:59:04.991Z,102626.38
2019-02-15T20:01:33.636Z,102628.82
2019-02-15T20:04:02.186Z,102628.08
2019-02-15T20:06:30.738Z,102623.84
2019-02-15T20:08:59.172Z,102622.14
2019-02-15T20:11:28.506Z,102625.16
2019-02-15T20:13:56.960Z,102620.80
2019-02-15T20:16:25.705Z,102618.25
2019-02-15T20:18:54.178Z,102614.52
2019-02-15T20:21:22.580Z,102616.92
2019-02-15T20:23:51.330Z,102609.91
2019-02-15T20:26:19.756Z,102610.47
2019-02-15T20:28:48.170Z,102611.34
2019-02-15T20:31:16.609Z,102605.14
2019-02-15T20:33:45.070Z,102607.47
2019-02-15T20:36:13.525Z,102607.24
2019-02-15T20:38:42.238Z,102602.73
2019-02-15T20:41:10.672Z,102601.27
2019-02-15T20:43:39.628Z,102605.25
2019-02-15T20:46:08.100Z,102603.22
2019-02-15T20:48:36.540Z,102604.03
2019-02-15T20:51:05.374Z,102602.95
2019-02-15T20:53:33.867Z,102597.11
2019-02-15T20:56:02.272Z,102598.59
2019-02-15T20:58:30.686Z,102597.62
2019-02-15T21:00:59.206Z,102593.75
2019-02-15T21:03:27.657Z,102594.70
2019-02-15T21:05:56.017Z,102591.78
2019-02-15T21:08:26.535Z,102589.71
2019-02-15T21:10:55.704Z,102582.69
2019-02-15T21:13:24.190Z,102586.45
2019-02-15T21:15:52.594Z,102583.91
2019-02-15T21:18:20.998Z,102583.91
2019-02-15T21:20:49.430Z,102580.88
2019-02-15T21:23:17.846Z,102575.78
2019-02-15T21:25:46.610Z,102574.82
2019-02-15T21:28:15.416Z,102566.00
2019-02-15T21:30:43.890Z,102570.46
2019-02-15T21:33:12.325Z,102557.69
2019-02-15T21:35:41.039Z,102564.66
2019-02-15T21:38:09.563Z,102564.06
2019-02-15T21:40:38.096Z,102564.42
2019-02-15T21:43:06.542Z,102564.53
2019-02-15T21:45:35.263Z,102554.27
2019-02-15T21:48:03.701Z,102557.52
2019-02-15T21:50:32.117Z,102547.59
2019-02-15T21:53:00.735Z,102546.52
2019-02-15T21:55:29.177Z,102545.66
2019-02-15T21:58:01.600Z,102547.20
2019-02-15T22:00:28.341Z,102538.75
2019-02-15T22:02:56.766Z,102541.03
2019-02-15T22:05:25.217Z,102535.34
2019-02-15T22:07:53.661Z,102535.12
2019-02-15T22:10:22.502Z,102531.95
2019-02-15T22:12:50.925Z,102530.02
2019-02-15T22:15:19.722Z,102535.44
2019-02-15T22:17:48.313Z,102533.14
2019-02-15T22:20:26.014Z,102537.82
2019-02-15T22:22:47.868Z,102533.46
2019-02-15T22:25:16.473Z,102536.26
2019-02-15T22:27:44.974Z,102532.97
2019-02-15T22:30:15.463Z,102530.09
2019-02-15T22:32:43.939Z,102528.16
2019-02-15T22:35:12.559Z,102524.78
2019-02-15T22:37:41.380Z,102531.91
2019-02-15T22:40:29.668Z,102534.67
2019-02-15T22:43:04.148Z,102527.17
2019-02-15T22:45:32.652Z,102523.30
2019-02-15T22:48:01.037Z,102526.91
2019-02-15T22:50:35.761Z,102522.22
2019-02-15T22:52:59.598Z,102521.84
2019-02-15T22:55:28.060Z,102524.61
2019-02-15T22:57:56.435Z,102520.84
2019-02-15T23:00:32.369Z,102513.48
2019-02-15T23:03:01.089Z,102518.91
2019-02-15T23:05:29.545Z,102513.23
2019-02-15T23:07:57.980Z,102514.66
2019-02-15T23:10:26.530Z,102509.83
2019-02-15T23:12:54.961Z,102506.56
2019-02-15T23:15:23.438Z,102508.37
2019-02-15T23:17:51.819Z,102505.34
2019-02-15T23:20:20.279Z,102506.04
2019-02-15T23:22:48.664Z,102504.48
2019-02-15T23:25:17.064Z,102500.60
2019-02-15T23:27:45.441Z,102504.32
2019-02-15T23:30:13.819Z,102496.35
2019-02-15T23:32:42.254Z,102490.81
2019-02-15T23:35:11.012Z,102490.92
2019-02-15T23:37:39.709Z,102487.39
2019-02-15T23:40:08.138Z,102486.44
2019-02-15T23:42:36.894Z,102486.30
2019-02-15T23:45:06.008Z,102483.41
2019-02-15T23:47:34.417Z,102482.19
2019-02-15T23:50:02.803Z,102486.27
2019-02-15T23:52:31.265Z,102488.19
2019-02-15T23:55:01.499Z,102485.16
2019-02-15T23:57:30.252Z,102475.18
2019-02-15T23:59:59.074Z,102477.09
